Terminal Aerodrome Forecast
Issued by NWS

Home | Current Version | Previous Version | Text Only | Print | Product List | Glossary On
Versions: 1 2 3 4 5 6 7 8 9 10 11 12 13 14 15 16 17 18 19 20 21 22 23 24 25
000
FTUS43 KLOT 210539
TAFGYY
TAF
KGYY 210539Z 2106/2206 14005KT P6SM VCTS BKN045CB BKN090
      TEMPO 2106/2107 3SM -TSRA BKN050CB
     FM210730 18005KT P6SM BKN040
     FM211800 20008KT P6SM VCSH BKN045 BKN100
     FM212100 19009KT P6SM SCT050 BKN150=

USA.gov is the U.S. government's official web portal to all federal, state and local government web resources and services.